Time;durP1;ratioP1;P1;durP2;ratioP2;P2;SDS_P1;SDS_P2;PMS_P1;PMS_P2;Temp;Humidity;BMP_temperature;BMP_pressure;BME280_temperature;BME280_humidity;BME280_pressure;Samples;Min_cycle;Max_cycle;Signal;HPM_P1;HPM_P2
2023/09/05 00:00:10;;;;;;;7.20;4.65;;;;;;;16.33;100.00;64681.81;5051847;28;20205;-51
2023/09/05 00:02:39;;;;;;;6.63;4.15;;;;;;;16.29;100.00;64674.88;5051549;28;20213;-51
2023/09/05 00:05:07;;;;;;;3.92;3.53;;;;;;;16.22;100.00;64669.72;5050819;28;20213;-55
2023/09/05 00:07:35;;;;;;;3.85;3.50;;;;;;;16.15;100.00;64659.47;5051579;28;20356;-53
2023/09/05 00:10:05;;;;;;;4.13;3.72;;;;;;;16.28;100.00;64673.78;5033851;28;20232;-52
2023/09/05 00:12:31;;;;;;;3.28;2.90;;;;;;;16.24;100.00;64671.38;5051532;28;20206;-52
2023/09/05 00:14:58;;;;;;;4.25;3.85;;;;;;;16.28;100.00;64676.31;5051635;28;20671;-51
2023/09/05 00:17:24;;;;;;;3.95;2.60;;;;;;;16.22;100.00;64666.63;5051535;28;20237;-51
2023/09/05 00:19:51;;;;;;;3.55;3.22;;;;;;;16.21;100.00;64668.63;5051439;28;20206;-55
2023/09/05 00:22:19;;;;;;;3.80;2.78;;;;;;;16.27;100.00;64675.22;5051285;28;20676;-51
2023/09/05 00:24:44;;;;;;;2.55;2.35;;;;;;;16.34;100.00;64682.91;5051480;28;20198;-52
2023/09/05 00:27:11;;;;;;;3.20;2.83;;;;;;;16.53;100.00;64701.31;5051240;28;20224;-52
2023/09/05 00:29:39;;;;;;;2.33;2.05;;;;;;;16.44;100.00;64693.94;5051301;28;20309;-52
2023/09/05 00:32:05;;;;;;;2.63;2.42;;;;;;;16.34;100.00;64682.38;5051239;28;20213;-51
2023/09/05 00:34:32;;;;;;;1.92;1.80;;;;;;;16.33;100.00;64681.81;5050581;28;20217;-52
2023/09/05 00:37:00;;;;;;;2.42;2.08;;;;;;;16.41;100.00;64690.63;5050897;28;20252;-52
2023/09/05 00:39:30;;;;;;;3.30;2.15;;;;;;;16.43;100.00;64692.84;5033075;28;20271;-54
2023/09/05 00:41:56;;;;;;;2.20;2.00;;;;;;;16.39;100.00;64687.88;5051141;28;20235;-52
2023/09/05 00:44:23;;;;;;;2.65;2.13;;;;;;;16.45;100.00;64691.94;5051492;28;20256;-57
2023/09/05 00:46:52;;;;;;;1.77;1.65;;;;;;;16.52;100.00;64704.75;5032990;28;20216;-52
2023/09/05 00:49:22;;;;;;;2.70;2.10;;;;;;;16.61;100.00;64709.56;5050809;28;20189;-52
2023/09/05 00:51:50;;;;;;;2.22;1.83;;;;;;;16.54;100.00;64704.94;5033203;28;20304;-55
2023/09/05 00:54:17;;;;;;;1.67;1.58;;;;;;;16.30;100.00;64678.50;5050888;28;20276;-54
2023/09/05 00:56:43;;;;;;;2.17;2.03;;;;;;;16.20;100.00;64666.97;5032963;28;20272;-52
2023/09/05 00:59:09;;;;;;;2.33;2.05;;;;;;;16.26;100.00;64671.03;5050684;28;20189;-52
2023/09/05 01:01:35;;;;;;;2.95;2.30;;;;;;;16.18;100.00;64662.75;5050861;28;20213;-53
2023/09/05 01:04:01;;;;;;;2.40;2.20;;;;;;;16.30;100.00;64677.97;5050742;28;20201;-53
2023/09/05 01:06:38;;;;;;;2.67;2.30;;;;;;;16.25;100.00;64670.47;5050417;28;20217;-54
2023/09/05 01:09:48;;;;;;;2.15;1.98;;;;;;;16.32;100.00;64678.16;5016352;28;20197;-52
2023/09/05 01:12:14;;;;;;;2.47;2.20;;;;;;;16.38;100.00;64687.31;5050583;28;20235;-52
2023/09/05 01:14:40;;;;;;;3.13;2.50;;;;;;;16.23;100.00;64670.25;5050618;28;20221;-52
2023/09/05 01:17:06;;;;;;;2.55;2.30;;;;;;;16.21;100.00;64668.06;5049933;28;20240;-53
2023/09/05 01:19:36;;;;;;;2.42;2.15;;;;;;;16.23;100.00;64670.81;5050456;28;20700;-54
2023/09/05 01:22:16;;;;;;;2.20;2.00;;;;;;;16.20;100.00;64667.50;5050377;28;20209;-52
2023/09/05 01:24:43;;;;;;;3.05;1.98;;;;;;;16.18;100.00;64662.22;5050575;28;20205;-54
2023/09/05 01:27:09;;;;;;;2.10;1.90;;;;;;;16.30;100.00;64677.97;5032648;28;20208;-52
2023/09/05 01:29:36;;;;;;;1.83;1.67;;;;;;;16.27;100.00;64675.22;5050630;28;20745;-52
2023/09/05 01:32:03;;;;;;;3.30;1.60;;;;;;;16.20;100.00;64666.97;5050262;28;20210;-52
2023/09/05 01:34:30;;;;;;;2.42;1.48;;;;;;;16.26;100.00;64676.66;5032478;28;20224;-52
2023/09/05 01:36:56;;;;;;;2.00;1.80;;;;;;;16.21;100.00;64668.63;5050335;28;20198;-51
2023/09/05 01:39:23;;;;;;;2.20;1.58;;;;;;;16.31;100.00;64681.63;5050293;28;20764;-52
2023/09/05 01:41:49;;;;;;;2.45;1.25;;;;;;;16.29;100.00;64674.88;5032436;28;20284;-51
2023/09/05 01:44:15;;;;;;;2.00;1.80;;;;;;;16.17;100.00;64664.22;5050299;28;20334;-52
2023/09/05 01:46:41;;;;;;;1.75;1.60;;;;;;;16.13;100.00;64659.25;5050117;28;20640;-51
2023/09/05 01:49:06;;;;;;;1.50;1.20;;;;;;;16.12;100.00;64658.16;5049908;28;20252;-52
2023/09/05 01:51:32;;;;;;;1.40;1.30;;;;;;;16.03;100.00;64648.81;5048555;28;20770;-53
2023/09/05 01:53:57;;;;;;;1.52;1.42;;;;;;;16.05;100.00;64653.00;5050149;28;20290;-53
2023/09/05 01:56:22;;;;;;;2.92;1.73;;;;;;;16.17;100.00;64664.22;5050378;28;20213;-52
2023/09/05 01:58:48;;;;;;;3.33;1.73;;;;;;;16.18;100.00;64665.31;5049056;28;20212;-55
2023/09/05 02:01:13;;;;;;;3.03;1.67;;;;;;;16.17;100.00;64663.66;5050235;28;20236;-51
2023/09/05 02:03:58;;;;;;;2.15;1.38;;;;;;;16.04;100.00;64654.97;5049958;28;20200;-52
2023/09/05 02:06:24;;;;;;;1.92;1.83;;;;;;;16.09;100.00;64655.41;5031945;28;20209;-52
2023/09/05 02:08:50;;;;;;;2.28;2.00;;;;;;;16.01;100.00;64644.06;5050051;28;20212;-55
2023/09/05 02:11:16;;;;;;;1.70;1.60;;;;;;;16.02;100.00;64644.63;5049744;28;20591;-52
2023/09/05 02:13:41;;;;;;;2.28;1.98;;;;;;;16.01;100.00;64644.06;5049891;28;20664;-52
2023/09/05 02:16:07;;;;;;;1.98;1.77;;;;;;;15.90;100.00;64631.94;5050145;28;20881;-52
2023/09/05 02:18:33;;;;;;;3.25;1.65;;;;;;;16.01;100.00;64648.59;5049932;28;20185;-52
2023/09/05 02:21:00;;;;;;;2.10;1.80;;;;;;;16.00;100.00;64644.97;5050160;28;20213;-52
2023/09/05 02:23:26;;;;;;;2.45;2.03;;;;;;;16.09;100.00;64654.84;5049823;28;20308;-53
2023/09/05 02:26:02;;;;;;;1.85;1.65;;;;;;;16.00;100.00;64644.97;5049847;28;20205;-51
2023/09/05 02:28:46;;;;;;;7.90;2.25;;;;;;;15.94;100.00;64639.44;5050226;28;20698;-52
2023/09/05 02:31:11;;;;;;;4.68;2.60;;;;;;;16.13;100.00;64661.81;5052781;28;20229;-51
2023/09/05 02:33:37;;;;;;;2.55;2.28;;;;;;;16.09;100.00;64654.84;5053054;28;20197;-51
2023/09/05 02:36:15;;;;;;;2.45;2.25;;;;;;;15.96;100.00;64638.56;5052930;28;20201;-50
2023/09/05 02:38:42;;;;;;;3.55;2.53;;;;;;;15.93;100.00;64637.81;5053087;28;20226;-53
2023/09/05 02:41:16;;;;;;;2.58;2.38;;;;;;;16.02;100.00;64647.16;5053304;28;20288;-52
2023/09/05 02:43:43;;;;;;;7.30;3.97;;;;;;;15.98;100.00;64640.22;5053000;28;20201;-52
2023/09/05 02:46:08;;;;;;;5.60;4.10;;;;;;;16.02;100.00;64647.16;5052865;28;20233;-52
2023/09/05 02:48:39;;;;;;;3.35;2.80;;;;;;;16.09;100.00;64654.84;5034902;28;20782;-52
2023/09/05 02:51:12;;;;;;;3.60;3.17;;;;;;;16.15;100.00;64661.47;5052797;28;20248;-52
2023/09/05 02:53:38;;;;;;;3.13;2.65;;;;;;;16.10;100.00;64659.03;5052631;28;20216;-52
2023/09/05 02:56:04;;;;;;;3.85;3.38;;;;;;;16.09;100.00;64652.88;5052624;28;20247;-52
2023/09/05 02:58:31;;;;;;;3.78;3.28;;;;;;;16.22;100.00;64667.16;5052289;28;20205;-51
2023/09/05 03:01:05;;;;;;;4.68;3.28;;;;;;;16.14;100.00;64657.81;5036517;28;20209;-52
2023/09/05 03:03:31;;;;;;;4.30;3.67;;;;;;;16.09;100.00;64652.88;5053015;28;20567;-59
2023/09/05 03:06:06;;;;;;;3.42;3.13;;;;;;;16.02;100.00;64647.69;5053191;28;20205;-53
2023/09/05 03:08:32;;;;;;;3.33;2.67;;;;;;;16.05;100.00;64650.44;5053135;28;20602;-52
2023/09/05 03:10:58;;;;;;;4.20;3.45;;;;;;;16.09;100.00;64655.41;5034881;28;20221;-55
2023/09/05 03:13:24;;;;;;;12.70;6.43;;;;;;;16.11;100.00;64654.50;5053006;28;20201;-54
2023/09/05 03:15:52;;;;;;;5.13;4.63;;;;;;;16.14;100.00;64655.81;5052821;28;20691;-53
2023/09/05 03:18:18;;;;;;;5.28;4.22;;;;;;;16.18;100.00;64664.78;5052950;28;20656;-53
2023/09/05 03:20:44;;;;;;;8.63;5.15;;;;;;;16.25;100.00;64669.91;5052794;28;20209;-52
2023/09/05 03:23:11;;;;;;;5.85;5.20;;;;;;;16.23;100.00;64670.81;5053093;28;20228;-52
2023/09/05 03:25:37;;;;;;;5.65;4.65;;;;;;;16.31;100.00;64679.63;5053361;28;20225;-51
2023/09/05 03:28:03;;;;;;;4.07;3.67;;;;;;;16.36;100.00;64684.59;5052353;28;20205;-56
2023/09/05 03:30:29;;;;;;;4.43;4.03;;;;;;;16.25;100.00;64675.00;5051999;28;20257;-54
2023/09/05 03:32:55;;;;;;;4.72;4.30;;;;;;;16.16;100.00;64662.56;5052114;28;20698;-54
2023/09/05 03:35:20;;;;;;;5.07;4.45;;;;;;;16.17;100.00;64661.13;5052966;28;20205;-55
2023/09/05 03:37:46;;;;;;;8.75;6.32;;;;;;;16.13;100.00;64657.28;5052407;28;20255;-55
2023/09/05 03:40:12;;;;;;;5.78;4.57;;;;;;;16.18;100.00;64662.75;5052011;28;20194;-51
2023/09/05 03:42:40;;;;;;;8.95;4.65;;;;;;;16.22;100.00;64669.72;5052361;28;20201;-57
2023/09/05 03:45:06;;;;;;;5.30;4.65;;;;;;;16.17;100.00;64664.22;5052349;28;20214;-57
2023/09/05 03:47:32;;;;;;;4.40;4.03;;;;;;;16.23;100.00;64665.19;5052176;28;20206;-53
2023/09/05 03:49:58;;;;;;;4.82;4.32;;;;;;;16.16;100.00;64665.66;5053506;28;20686;-51
2023/09/05 03:52:24;;;;;;;7.90;4.47;;;;;;;16.16;100.00;64663.09;5052016;28;20210;-55
2023/09/05 03:54:49;;;;;;;6.32;5.00;;;;;;;16.19;100.00;64666.41;5052377;28;20232;-52
2023/09/05 03:57:16;;;;;;;5.15;4.65;;;;;;;16.23;100.00;64670.25;5052309;28;20217;-54
2023/09/05 03:59:41;;;;;;;5.38;4.88;;;;;;;16.27;100.00;64672.69;5052377;28;20209;-53
2023/09/05 04:02:08;;;;;;;5.53;4.75;;;;;;;16.19;100.00;64666.41;5052825;28;20208;-52
2023/09/05 04:04:33;;;;;;;5.38;4.88;;;;;;;16.09;100.00;64657.41;5051903;28;20312;-52
2023/09/05 04:06:58;;;;;;;5.82;4.93;;;;;;;16.20;100.00;64667.50;5052041;28;20218;-50
2023/09/05 04:09:24;;;;;;;7.43;5.93;;;;;;;16.01;100.00;64646.59;5051843;28;20209;-50
2023/09/05 04:11:50;;;;;;;5.32;4.82;;;;;;;16.34;100.00;64682.91;5051908;28;20213;-53
2023/09/05 04:14:15;;;;;;;6.45;5.47;;;;;;;16.63;100.00;64714.88;5017696;28;20225;-51
2023/09/05 04:16:42;;;;;;;6.50;5.80;;;;;;;16.87;100.00;64740.75;5051756;28;20205;-52
2023/09/05 04:19:33;;;;;;;7.07;5.53;;;;;;;16.88;100.00;64741.31;5051846;28;20276;-52
2023/09/05 04:21:59;;;;;;;8.35;6.53;;;;;;;17.04;100.00;64759.47;5033673;28;20305;-51
2023/09/05 04:24:24;;;;;;;6.00;5.05;;;;;;;17.25;100.00;64784.63;5051412;28;20277;-51
2023/09/05 04:26:50;;;;;;;7.43;6.00;;;;;;;17.33;100.00;64788.34;5051470;28;20204;-51
2023/09/05 04:29:17;;;;;;;8.57;6.53;;;;;;;17.32;100.00;64792.31;5051372;28;20197;-50
2023/09/05 04:31:43;;;;;;;7.30;6.60;;;;;;;17.36;100.00;64792.19;5052048;28;20209;-51
2023/09/05 04:34:08;;;;;;;11.88;6.55;;;;;;;17.44;100.00;64803.00;5051442;28;20693;-51
2023/09/05 04:36:36;;;;;;;12.73;6.68;;;;;;;17.59;100.00;64819.56;5051396;28;20217;-58
2023/09/05 04:39:03;;;;;;;8.85;6.65;;;;;;;17.80;100.00;64842.13;5051096;28;20655;-54
2023/09/05 04:41:28;;;;;;;9.82;6.97;;;;;;;17.94;100.00;64858.13;5051594;28;20667;-51
2023/09/05 04:43:53;;;;;;;7.65;6.03;;;;;;;18.08;100.00;64870.47;5051525;28;20254;-54
2023/09/05 04:46:19;;;;;;;7.13;6.30;;;;;;;18.26;100.00;64893.41;5033519;28;20636;-53
2023/09/05 04:48:45;;;;;;;8.60;6.70;;;;;;;18.27;100.00;64891.97;5051313;28;20192;-52
2023/09/05 04:51:11;;;;;;;7.55;6.35;;;;;;;18.47;100.00;64912.94;5050010;28;20567;-52
2023/09/05 04:53:36;;;;;;;9.00;6.93;;;;;;;18.63;100.00;64933.69;5050870;28;20565;-52
2023/09/05 04:56:03;;;;;;;9.80;7.30;;;;;;;18.55;100.00;64921.75;5051110;28;20663;-52
2023/09/05 04:58:32;;;;;;;12.75;8.30;;;;;;;18.52;100.00;64918.47;5051278;28;20298;-54
2023/09/05 05:01:02;;;;;;;8.75;7.35;;;;;;;18.27;100.00;64893.97;5051207;28;20198;-53
2023/09/05 05:03:37;;;;;;;10.32;7.80;;;;;;;18.38;100.00;64906.09;5051415;28;20236;-54
2023/09/05 05:06:05;;;;;;;9.25;7.30;;;;;;;18.53;100.00;64920.13;5033733;28;20205;-57
2023/09/05 05:08:49;;;;;;;8.95;7.80;;;;;;;18.52;100.00;64918.47;5051080;28;20263;-54
2023/09/05 05:11:15;;;;;;;8.57;7.57;;;;;;;18.28;100.00;64890.50;5051145;28;20253;-53
2023/09/05 05:13:41;;;;;;;11.35;8.18;;;;;;;18.49;100.00;64913.16;5032958;28;20376;-57
2023/09/05 05:16:07;;;;;;;18.10;8.68;;;;;;;18.54;100.00;64923.22;5051279;28;20205;-54
2023/09/05 05:18:32;;;;;;;10.13;8.13;;;;;;;18.60;100.00;64927.84;5050599;28;20238;-54
2023/09/05 05:20:58;;;;;;;9.15;7.40;;;;;;;18.78;100.00;64947.69;5050991;28;20292;-52
2023/09/05 05:23:24;;;;;;;10.38;7.85;;;;;;;18.94;100.00;64965.34;5050697;28;20605;-55
2023/09/05 05:25:49;;;;;;;10.18;7.55;;;;;;;19.10;100.00;64985.00;5032575;28;20223;-54
2023/09/05 05:28:15;;;;;;;9.75;7.97;;;;;;;19.12;100.00;64987.22;5050487;28;20201;-54
2023/09/05 05:30:41;;;;;;;9.95;6.80;;;;;;;19.84;100.00;65069.28;5050041;28;20225;-55
2023/09/05 05:33:07;;;;;;;13.38;7.60;;;;;;;20.40;100.00;65125.50;5049541;28;20232;-56
2023/09/05 05:35:32;;;;;;;10.40;6.25;;;;;;;20.66;100.00;65156.25;5048629;28;20589;-53
2023/09/05 05:37:58;;;;;;;7.75;6.70;;;;;;;21.49;100.00;65242.38;5050491;28;20749;-54
2023/09/05 05:40:25;;;;;;;7.47;6.15;;;;;;;21.46;100.00;65244.72;5049137;28;20573;-54
2023/09/05 05:42:50;;;;;;;9.55;7.47;;;;;;;21.15;100.00;65210.44;5032554;28;20205;-53
2023/09/05 05:45:16;;;;;;;12.25;7.97;;;;;;;20.97;100.00;65189.97;5050512;28;20630;-54
2023/09/05 05:47:41;;;;;;;7.57;6.80;;;;;;;20.98;100.00;65186.50;5050090;28;20201;-53
2023/09/05 05:50:09;;;;;;;9.18;7.57;;;;;;;21.15;100.00;65210.44;5050201;28;20288;-57
2023/09/05 05:52:35;;;;;;;6.97;6.28;;;;;;;21.57;100.00;65253.78;5050301;28;20212;-55
2023/09/05 05:55:00;;;;;;;8.50;6.68;;;;;;;21.53;99.22;65252.47;5050368;28;20583;-54
2023/09/05 05:57:26;;;;;;;8.95;6.78;;;;;;;21.73;95.60;65266.34;5050188;28;20715;-53
2023/09/05 05:59:51;;;;;;;8.77;7.18;;;;;;;22.09;90.86;65310.78;5050417;28;20236;-53
2023/09/05 06:02:17;;;;;;;7.45;6.63;;;;;;;22.12;90.08;65312.06;5050468;28;20277;-54
2023/09/05 06:04:43;;;;;;;8.80;6.45;;;;;;;22.30;87.63;65334.56;5053764;28;20213;-53
2023/09/05 06:07:08;;;;;;;10.57;8.65;;;;;;;21.70;93.06;65268.72;5053684;28;20300;-54
2023/09/05 06:09:34;;;;;;;10.05;7.85;;;;;;;21.27;96.75;65221.13;5053400;28;20202;-54
2023/09/05 06:12:00;;;;;;;9.88;8.00;;;;;;;20.95;100.00;65185.72;5053621;28;20296;-53
2023/09/05 06:14:27;;;;;;;14.23;9.73;;;;;;;20.53;100.00;65136.75;5053565;28;20674;-54
2023/09/05 06:16:53;;;;;;;10.07;8.48;;;;;;;20.23;100.00;65106.16;5035815;28;20206;-56
2023/09/05 06:19:19;;;;;;;10.40;8.82;;;;;;;20.05;100.00;65089.94;5053218;28;20224;-53
2023/09/05 06:21:46;;;;;;;10.75;8.55;;;;;;;19.94;100.00;65077.78;5053349;28;20208;-53
2023/09/05 06:24:12;;;;;;;9.73;8.73;;;;;;;20.15;100.00;65102.44;5035713;28;20201;-55
2023/09/05 06:26:38;;;;;;;9.43;8.43;;;;;;;20.05;100.00;65087.38;5053413;28;20221;-54
2023/09/05 06:29:04;;;;;;;11.75;8.95;;;;;;;20.18;100.00;65103.72;5052034;28;20205;-59
2023/09/05 06:31:30;;;;;;;12.25;8.30;;;;;;;20.15;100.00;65099.88;5053321;28;20605;-54
2023/09/05 06:33:55;;;;;;;11.32;9.65;;;;;;;20.10;100.00;65094.88;5051972;28;20338;-59
2023/09/05 06:36:22;;;;;;;12.18;9.20;;;;;;;19.94;100.00;65074.66;5053022;28;20300;-53
2023/09/05 06:38:47;;;;;;;10.77;9.35;;;;;;;19.81;100.00;65060.88;5053166;28;20208;-54
2023/09/05 06:41:15;;;;;;;9.43;8.50;;;;;;;19.87;100.00;65067.50;5053028;28;20213;-52
2023/09/05 06:43:41;;;;;;;9.57;8.48;;;;;;;20.05;100.00;65087.38;5053142;28;20205;-53
2023/09/05 06:46:08;;;;;;;9.65;8.65;;;;;;;20.01;100.00;65082.97;5053525;28;20279;-53
2023/09/05 06:48:39;;;;;;;12.48;9.50;;;;;;;19.86;100.00;65068.38;5052907;28;20292;-52
2023/09/05 06:51:05;;;;;;;12.10;9.45;;;;;;;19.90;100.00;65070.25;5053212;28;20221;-56
2023/09/05 06:53:31;;;;;;;10.57;8.73;;;;;;;20.08;100.00;65090.69;5053205;28;20200;-53
2023/09/05 06:55:57;;;;;;;9.75;7.90;;;;;;;20.04;100.00;65086.25;5035286;28;20213;-56
2023/09/05 06:58:25;;;;;;;9.45;8.52;;;;;;;20.19;100.00;65101.72;5052964;28;20205;-52
2023/09/05 07:00:54;;;;;;;9.73;8.13;;;;;;;20.20;100.00;65105.41;5052792;28;20275;-53
2023/09/05 07:03:25;;;;;;;8.93;7.90;;;;;;;20.29;100.00;65112.78;5034832;28;20221;-53
2023/09/05 07:05:53;;;;;;;11.00;8.10;;;;;;;20.38;100.00;65123.28;5052527;28;20213;-54
2023/09/05 07:08:18;;;;;;;8.75;7.63;;;;;;;20.64;100.00;65154.59;5052749;28;20676;-53
2023/09/05 07:10:45;;;;;;;8.25;7.45;;;;;;;20.70;100.00;65158.09;5052478;28;20228;-53
2023/09/05 07:13:10;;;;;;;9.35;8.40;;;;;;;20.64;100.00;65151.47;5052465;28;20216;-52
2023/09/05 07:15:36;;;;;;;8.93;7.75;;;;;;;20.75;100.00;65164.19;5034185;28;20563;-52
2023/09/05 07:18:02;;;;;;;10.25;7.63;;;;;;;20.74;100.00;65163.09;5034647;28;20213;-53
2023/09/05 07:20:28;;;;;;;9.52;8.35;;;;;;;20.67;100.00;65157.34;5052739;28;20212;-55
2023/09/05 07:22:53;;;;;;;13.05;7.90;;;;;;;20.46;100.00;65131.59;5052532;28;20205;-51
2023/09/05 07:25:19;;;;;;;8.70;7.80;;;;;;;20.27;100.00;65110.59;5052379;28;20622;-53
2023/09/05 07:27:44;;;;;;;7.40;6.75;;;;;;;20.26;100.00;65110.03;5052303;28;20213;-59
2023/09/05 07:30:10;;;;;;;7.93;7.22;;;;;;;20.19;100.00;65101.72;5052385;28;20714;-53
2023/09/05 07:32:38;;;;;;;10.20;8.50;;;;;;;20.13;100.00;65100.22;5052216;28;20209;-53
2023/09/05 07:35:05;;;;;;;9.18;7.82;;;;;;;19.88;100.00;65068.59;5052204;28;20197;-53
2023/09/05 07:37:31;;;;;;;9.27;7.90;;;;;;;19.86;100.00;65066.38;5052212;28;20316;-53
2023/09/05 07:39:57;;;;;;;11.15;7.82;;;;;;;19.74;100.00;65053.13;5052388;28;20255;-53
2023/09/05 07:42:22;;;;;;;9.05;7.80;;;;;;;19.82;100.00;65064.53;5051985;28;20209;-53
2023/09/05 07:44:48;;;;;;;9.57;8.23;;;;;;;19.93;100.00;65074.13;5052025;28;20205;-54
2023/09/05 07:47:14;;;;;;;7.68;6.80;;;;;;;19.73;100.00;65052.03;5052124;28;20258;-54
2023/09/05 07:49:44;;;;;;;15.38;8.05;;;;;;;19.43;100.00;65021.47;5051889;28;20206;-53
2023/09/05 07:52:10;;;;;;;8.10;6.88;;;;;;;19.34;100.00;65008.97;5051938;28;20218;-53
2023/09/05 07:54:36;;;;;;;13.68;7.32;;;;;;;19.79;100.00;65058.09;5034158;28;20220;-54
2023/09/05 07:57:02;;;;;;;7.47;6.63;;;;;;;20.07;100.00;65087.03;5051825;28;20686;-54
2023/09/05 07:59:28;;;;;;;7.82;7.03;;;;;;;20.16;100.00;65101.53;5033885;28;20209;-53
2023/09/05 08:01:57;;;;;;;8.48;7.13;;;;;;;20.24;100.00;65107.28;5051871;28;20293;-54
2023/09/05 08:04:24;;;;;;;8.85;7.28;;;;;;;20.35;100.00;65119.41;5051759;28;20212;-55
2023/09/05 08:06:50;;;;;;;8.93;6.68;;;;;;;20.60;100.00;65141.94;5033649;28;20213;-53
2023/09/05 08:09:16;;;;;;;7.88;7.05;;;;;;;20.69;100.00;65157.00;5051629;28;20704;-53
2023/09/05 08:11:42;;;;;;;11.85;7.28;;;;;;;20.68;100.00;65155.91;5051311;28;20757;-52
2023/09/05 08:14:07;;;;;;;7.95;6.90;;;;;;;20.55;100.00;65142.09;5051612;28;20185;-54
2023/09/05 08:16:34;;;;;;;9.60;6.38;;;;;;;20.71;100.00;65156.66;5051477;28;20596;-54
2023/09/05 08:19:00;;;;;;;7.90;6.45;;;;;;;20.78;100.00;65166.94;5017704;28;20722;-54
2023/09/05 08:21:26;;;;;;;8.32;7.00;;;;;;;20.84;100.00;65173.59;5033709;28;20300;-54
2023/09/05 08:23:52;;;;;;;9.25;6.35;;;;;;;20.86;100.00;65175.78;5051506;28;20204;-54
2023/09/05 08:26:18;;;;;;;8.00;7.20;;;;;;;21.12;100.00;65204.00;5032516;28;20217;-54
2023/09/05 08:28:45;;;;;;;8.20;6.53;;;;;;;21.39;98.83;65234.41;5051166;28;20194;-54
2023/09/05 08:31:11;;;;;;;13.05;7.32;;;;;;;21.35;99.20;65229.97;5051190;28;20259;-53
2023/09/05 08:33:37;;;;;;;6.28;5.72;;;;;;;21.45;98.50;65238.47;5051122;28;20228;-56
2023/09/05 08:36:06;;;;;;;6.95;5.85;;;;;;;21.35;98.12;65229.97;5051200;28;20203;-53
2023/09/05 08:38:32;;;;;;;7.93;7.13;;;;;;;21.34;96.10;65228.88;5049718;28;20684;-52
2023/09/05 08:41:01;;;;;;;8.15;7.22;;;;;;;21.16;100.00;65208.44;5051298;28;20203;-53
2023/09/05 08:43:28;;;;;;;8.43;6.45;;;;;;;20.93;100.00;65186.09;5051225;28;20284;-53
2023/09/05 08:45:55;;;;;;;8.18;6.78;;;;;;;20.88;100.00;65178.00;5051205;28;20201;-54
2023/09/05 08:48:21;;;;;;;8.55;6.60;;;;;;;20.87;100.00;65176.88;5051068;28;20205;-52
2023/09/05 08:50:48;;;;;;;7.47;6.75;;;;;;;20.68;100.00;65155.91;5051197;28;20320;-55
2023/09/05 08:53:17;;;;;;;6.80;6.10;;;;;;;20.87;99.85;65176.88;5050933;28;20204;-53
2023/09/05 08:55:44;;;;;;;7.47;6.47;;;;;;;20.88;100.00;65178.00;5050963;28;20209;-53
2023/09/05 08:58:13;;;;;;;8.52;6.38;;;;;;;20.77;100.00;65166.41;5050718;28;20213;-53
2023/09/05 09:00:38;;;;;;;6.85;6.07;;;;;;;20.97;100.00;65185.38;5050694;28;20209;-54
2023/09/05 09:03:07;;;;;;;6.93;6.22;;;;;;;21.00;100.00;65190.72;5050793;28;20208;-54
2023/09/05 09:05:33;;;;;;;7.85;5.80;;;;;;;21.21;99.49;65214.50;5033004;28;20209;-54
2023/09/05 09:07:59;;;;;;;7.63;6.35;;;;;;;21.34;99.78;65228.34;5050526;28;20288;-53
2023/09/05 09:10:25;;;;;;;6.63;5.95;;;;;;;21.27;95.06;65221.13;5050847;28;20209;-53
2023/09/05 09:12:55;;;;;;;7.60;6.78;;;;;;;21.27;96.21;65220.59;5050393;28;20366;-55
2023/09/05 09:15:26;;;;;;;7.30;6.43;;;;;;;20.94;100.00;65187.19;5050595;28;20205;-54
2023/09/05 09:17:52;;;;;;;6.78;5.80;;;;;;;21.14;99.01;65206.22;5050446;28;20397;-53
2023/09/05 09:20:19;;;;;;;5.55;5.05;;;;;;;21.19;92.80;65211.75;5050359;28;20209;-54
2023/09/05 09:22:50;;;;;;;5.50;5.00;;;;;;;21.11;88.97;65203.44;5050371;28;20208;-53
2023/09/05 09:25:20;;;;;;;5.93;5.00;;;;;;;21.18;93.14;65206.06;5033410;28;20201;-53
2023/09/05 09:27:53;;;;;;;5.70;4.90;;;;;;;22.10;97.77;65311.88;5050317;28;20225;-54
2023/09/05 09:30:24;;;;;;;6.60;4.63;;;;;;;22.61;87.34;65365.78;5050832;28;20220;-55
2023/09/05 09:32:58;;;;;;;5.22;4.55;;;;;;;22.42;81.60;65345.28;5031812;28;20217;-53
2023/09/05 09:35:26;;;;;;;5.68;4.45;;;;;;;22.25;80.50;65325.91;5050497;28;20311;-54
2023/09/05 09:37:51;;;;;;;8.05;4.55;;;;;;;22.41;78.79;65341.63;5048110;28;20213;-55
2023/09/05 09:40:17;;;;;;;6.88;4.45;;;;;;;22.26;76.77;65329.59;5050187;28;20677;-53
2023/09/05 09:42:48;;;;;;;9.07;4.63;;;;;;;22.69;83.21;65374.66;5032452;28;20278;-53
2023/09/05 09:45:13;;;;;;;5.65;5.15;;;;;;;22.90;79.57;65397.91;5050049;28;20212;-54
2023/09/05 09:47:47;;;;;;;5.45;4.57;;;;;;;22.92;79.60;65400.13;5050028;28;20205;-54
2023/09/05 09:50:12;;;;;;;6.68;4.40;;;;;;;23.40;75.59;65454.78;5049798;28;20228;-54
2023/09/05 09:52:46;;;;;;;4.50;4.10;;;;;;;24.30;74.29;65551.44;5049839;28;20631;-54
2023/09/05 09:55:13;;;;;;;6.50;4.22;;;;;;;24.74;68.63;65602.81;5050244;28;20209;-54
2023/09/05 09:58:09;;;;;;;5.38;4.20;;;;;;;24.80;64.85;65606.91;5049866;28;20205;-53
2023/09/05 10:00:36;;;;;;;6.03;4.05;;;;;;;25.42;67.23;65675.72;5049977;28;20211;-54
2023/09/05 10:03:04;;;;;;;5.18;4.28;;;;;;;25.38;66.67;65673.28;5049971;28;20205;-53
2023/09/05 10:05:30;;;;;;;4.28;3.85;;;;;;;25.56;59.63;65693.84;5049891;28;20205;-53
2023/09/05 10:07:57;;;;;;;5.28;3.72;;;;;;;25.54;59.62;65691.06;5049786;28;20243;-53
2023/09/05 10:10:24;;;;;;;5.15;3.85;;;;;;;25.58;61.00;65695.50;5049676;28;20226;-54
2023/09/05 10:12:51;;;;;;;7.70;3.60;;;;;;;25.73;60.43;65712.16;5049678;28;20216;-53
2023/09/05 10:15:19;;;;;;;6.78;3.33;;;;;;;25.28;54.82;65657.03;5049759;28;20730;-53
2023/09/05 10:17:45;;;;;;;9.20;3.38;;;;;;;25.60;54.54;65698.28;5049658;28;20205;-54
2023/09/05 10:20:14;;;;;;;8.48;3.50;;;;;;;25.74;57.60;65713.25;5049496;28;20246;-54
2023/09/05 10:22:44;;;;;;;5.85;3.83;;;;;;;25.56;54.39;65690.69;5049808;28;20214;-53
2023/09/05 10:25:12;;;;;;;5.03;3.35;;;;;;;25.43;57.00;65676.81;5049824;28;20243;-54
2023/09/05 10:27:37;;;;;;;5.78;3.20;;;;;;;25.86;53.85;65726.59;5049517;28;20205;-54
2023/09/05 10:30:03;;;;;;;4.32;3.40;;;;;;;26.06;57.62;65745.66;5048566;28;20216;-53
2023/09/05 10:32:31;;;;;;;3.22;2.92;;;;;;;26.47;52.84;65794.38;5030063;28;20283;-54
2023/09/05 10:35:03;;;;;;;6.43;3.50;;;;;;;26.77;50.85;65824.56;5049860;28;20205;-54
2023/09/05 10:37:35;;;;;;;4.22;3.15;;;;;;;26.49;51.28;65791.41;5049619;28;20220;-53
2023/09/05 10:40:08;;;;;;;4.75;3.25;;;;;;;26.39;51.85;65784.91;5049673;28;20199;-57
2023/09/05 10:42:40;;;;;;;5.25;2.67;;;;;;;26.19;52.23;65760.69;5049302;28;20217;-52
2023/09/05 10:45:22;;;;;;;4.22;2.83;;;;;;;26.52;51.14;65797.31;5049651;28;20232;-54
2023/09/05 10:47:49;;;;;;;5.13;3.08;;;;;;;26.10;50.21;65750.13;5049450;28;20201;-55
2023/09/05 10:50:22;;;;;;;3.92;2.50;;;;;;;26.49;49.11;65796.59;5033050;28;20225;-53
2023/09/05 10:53:11;;;;;;;5.25;3.30;;;;;;;26.80;48.96;65827.34;5052665;28;20216;-53
2023/09/05 10:55:44;;;;;;;4.22;2.88;;;;;;;27.18;48.93;65870.16;5027822;28;20258;-54
2023/09/05 10:58:53;;;;;;;7.25;3.15;;;;;;;26.80;48.29;65827.91;5052837;28;20207;-53
2023/09/05 11:01:31;;;;;;;4.07;2.50;;;;;;;26.45;48.45;65789.56;5052927;28;20204;-52
2023/09/05 11:04:08;;;;;;;7.10;3.03;;;;;;;26.87;48.89;65835.13;5052363;28;20209;-54
2023/09/05 11:06:34;;;;;;;3.30;2.72;;;;;;;27.12;48.88;65865.50;5035990;28;20209;-53
2023/09/05 11:09:07;;;;;;;4.75;3.00;;;;;;;27.22;52.20;65874.59;5052633;28;20275;-54
2023/09/05 11:11:36;;;;;;;3.60;3.30;;;;;;;27.03;49.49;65855.50;5052314;28;20691;-53
2023/09/05 11:14:03;;;;;;;3.80;3.00;;;;;;;27.41;51.89;65895.19;5052346;28;20205;-55
2023/09/05 11:16:42;;;;;;;4.32;3.50;;;;;;;27.36;49.33;65892.22;5052272;28;20217;-56
2023/09/05 11:19:07;;;;;;;4.20;2.95;;;;;;;27.31;49.67;65884.06;5052448;28;20213;-54
2023/09/05 11:21:32;;;;;;;6.60;3.60;;;;;;;27.49;50.33;65900.94;5052345;28;20613;-55
2023/09/05 11:23:58;;;;;;;3.25;2.88;;;;;;;27.63;48.03;65917.06;5052195;28;20628;-56
2023/09/05 11:26:25;;;;;;;3.50;3.20;;;;;;;28.07;47.02;65968.63;5052467;28;20274;-54
2023/09/05 11:28:51;;;;;;;5.50;3.15;;;;;;;27.48;46.60;65905.56;5052226;28;20205;-53